sensor_id;sensor_type;location;lat;lon;timestamp;pressure;altitude;pressure_sealevel;temperature;humidity
55456;BME280;63021;52.836;6.376;2024-03-02T00:00:09;100100.09;;;7.58;nan
55456;BME280;63021;52.836;6.376;2024-03-02T00:02:42;100094.66;;;7.59;nan
55456;BME280;63021;52.836;6.376;2024-03-02T00:05:11;100087.53;;;7.60;nan
55456;BME280;63021;52.836;6.376;2024-03-02T00:07:37;100085.91;;;7.59;nan
55456;BME280;63021;52.836;6.376;2024-03-02T00:10:08;100103.44;;;7.60;nan
55456;BME280;63021;52.836;6.376;2024-03-02T00:12:36;100081.97;;;7.63;nan
55456;BME280;63021;52.836;6.376;2024-03-02T00:15:05;100092.28;;;7.66;nan
55456;BME280;63021;52.836;6.376;2024-03-02T00:17:32;100077.25;;;7.57;nan
55456;BME280;63021;52.836;6.376;2024-03-02T00:19:57;100103.16;;;7.63;nan
55456;BME280;63021;52.836;6.376;2024-03-02T00:22:23;100093.81;;;7.69;nan
55456;BME280;63021;52.836;6.376;2024-03-02T00:24:48;100091.97;;;7.69;nan
55456;BME280;63021;52.836;6.376;2024-03-02T00:27:15;100083.06;;;7.70;nan
55456;BME280;63021;52.836;6.376;2024-03-02T00:29:43;100076.06;;;7.69;nan
55456;BME280;63021;52.836;6.376;2024-03-02T00:32:13;100072.97;;;7.74;nan
55456;BME280;63021;52.836;6.376;2024-03-02T00:34:41;100070.03;;;7.77;nan
55456;BME280;63021;52.836;6.376;2024-03-02T00:37:06;100079.50;;;7.79;nan
55456;BME280;63021;52.836;6.376;2024-03-02T00:39:32;100065.88;;;7.74;nan
55456;BME280;63021;52.836;6.376;2024-03-02T00:41:58;100059.06;;;7.72;nan
55456;BME280;63021;52.836;6.376;2024-03-02T00:44:25;100054.28;;;7.75;nan
55456;BME280;63021;52.836;6.376;2024-03-02T00:46:52;100062.50;;;7.82;nan
55456;BME280;63021;52.836;6.376;2024-03-02T00:49:22;100060.50;;;7.84;nan
55456;BME280;63021;52.836;6.376;2024-03-02T00:51:50;100052.56;;;7.84;nan
55456;BME280;63021;52.836;6.376;2024-03-02T00:54:19;100071.97;;;7.85;nan
55456;BME280;63021;52.836;6.376;2024-03-02T00:56:47;100061.78;;;7.80;nan
55456;BME280;63021;52.836;6.376;2024-03-02T00:59:12;100059.53;;;7.85;nan
55456;BME280;63021;52.836;6.376;2024-03-02T01:01:38;100043.63;;;7.85;nan
55456;BME280;63021;52.836;6.376;2024-03-02T01:04:03;100043.47;;;7.87;nan
55456;BME280;63021;52.836;6.376;2024-03-02T01:06:30;100040.84;;;7.87;nan
55456;BME280;63021;52.836;6.376;2024-03-02T01:08:55;100032.63;;;7.80;nan
55456;BME280;63021;52.836;6.376;2024-03-02T01:11:20;100051.44;;;7.87;nan
55456;BME280;63021;52.836;6.376;2024-03-02T01:13:49;100040.84;;;7.87;nan
55456;BME280;63021;52.836;6.376;2024-03-02T01:16:15;100043.47;;;7.87;nan
55456;BME280;63021;52.836;6.376;2024-03-02T01:18:41;100060.34;;;7.86;nan
55456;BME280;63021;52.836;6.376;2024-03-02T01:21:07;100035.16;;;7.82;nan
55456;BME280;63021;52.836;6.376;2024-03-02T01:23:33;100048.94;;;7.85;nan
55456;BME280;63021;52.836;6.376;2024-03-02T01:25:58;100069.47;;;7.83;nan
55456;BME280;63021;52.836;6.376;2024-03-02T01:28:24;100049.09;;;7.84;nan
55456;BME280;63021;52.836;6.376;2024-03-02T01:30:49;100050.91;;;7.83;nan
55456;BME280;63021;52.836;6.376;2024-03-02T01:33:16;100048.41;;;7.82;nan
55456;BME280;63021;52.836;6.376;2024-03-02T01:35:41;100034.75;;;7.76;nan
55456;BME280;63021;52.836;6.376;2024-03-02T01:38:07;100069.34;;;7.75;nan
55456;BME280;63021;52.836;6.376;2024-03-02T01:40:34;100014.19;;;7.70;nan
55456;BME280;63021;52.836;6.376;2024-03-02T01:42:59;100028.91;;;7.73;nan
55456;BME280;63021;52.836;6.376;2024-03-02T01:45:25;100047.72;;;7.79;nan
55456;BME280;63021;52.836;6.376;2024-03-02T01:47:50;100051.63;;;7.75;nan
55456;BME280;63021;52.836;6.376;2024-03-02T01:50:16;100046.75;;;7.80;nan
55456;BME280;63021;52.836;6.376;2024-03-02T01:52:49;100046.75;;;7.80;nan
55456;BME280;63021;52.836;6.376;2024-03-02T01:55:14;100033.78;;;7.77;nan
55456;BME280;63021;52.836;6.376;2024-03-02T01:57:40;100035.84;;;7.84;nan
55456;BME280;63021;52.836;6.376;2024-03-02T02:00:06;100045.63;;;7.83;nan
55456;BME280;63021;52.836;6.376;2024-03-02T02:02:31;100045.47;;;7.85;nan
55456;BME280;63021;52.836;6.376;2024-03-02T02:04:57;100022.50;;;7.75;nan
55456;BME280;63021;52.836;6.376;2024-03-02T02:07:22;100039.75;;;7.79;nan
55456;BME280;63021;52.836;6.376;2024-03-02T02:09:48;100034.47;;;7.79;nan
55456;BME280;63021;52.836;6.376;2024-03-02T02:12:13;100035.44;;;7.78;nan
55456;BME280;63021;52.836;6.376;2024-03-02T02:14:47;100045.63;;;7.83;nan
55456;BME280;63021;52.836;6.376;2024-03-02T02:17:12;100042.81;;;7.85;nan
55456;BME280;63021;52.836;6.376;2024-03-02T02:19:40;100048.25;;;7.83;nan
55456;BME280;63021;52.836;6.376;2024-03-02T02:22:06;100035.75;;;7.75;nan
55456;BME280;63021;52.836;6.376;2024-03-02T02:24:31;100056.59;;;7.88;nan
55456;BME280;63021;52.836;6.376;2024-03-02T02:26:56;100043.34;;;7.88;nan
55456;BME280;63021;52.836;6.376;2024-03-02T02:29:22;100053.41;;;7.85;nan
55456;BME280;63021;52.836;6.376;2024-03-02T02:31:47;100049.59;;;7.87;nan
55456;BME280;63021;52.836;6.376;2024-03-02T02:34:14;100055.06;;;7.86;nan
55456;BME280;63021;52.836;6.376;2024-03-02T02:36:40;100042.97;;;7.83;nan
55456;BME280;63021;52.836;6.376;2024-03-02T02:39:14;100055.34;;;7.83;nan
55456;BME280;63021;52.836;6.376;2024-03-02T02:41:41;100051.44;;;7.87;nan
55456;BME280;63021;52.836;6.376;2024-03-02T02:44:06;100036.44;;;7.77;nan
55456;BME280;63021;52.836;6.376;2024-03-02T02:46:32;100032.63;;;7.80;nan
55456;BME280;63021;52.836;6.376;2024-03-02T02:48:58;100052.00;;;7.90;nan
55456;BME280;63021;52.836;6.376;2024-03-02T02:51:23;100048.31;;;7.91;nan
55456;BME280;63021;52.836;6.376;2024-03-02T02:53:51;100033.59;;;7.89;nan
55456;BME280;63021;52.836;6.376;2024-03-02T02:56:16;100047.81;;;7.88;nan
55456;BME280;63021;52.836;6.376;2024-03-02T02:58:42;100058.09;;;7.91;nan
55456;BME280;63021;52.836;6.376;2024-03-02T03:01:07;100043.03;;;7.91;nan
55456;BME280;63021;52.836;6.376;2024-03-02T03:03:33;100055.47;;;7.91;nan
55456;BME280;63021;52.836;6.376;2024-03-02T03:06:04;100027.75;;;7.85;nan
55456;BME280;63021;52.836;6.376;2024-03-02T03:08:29;100037.56;;;7.93;nan
55456;BME280;63021;52.836;6.376;2024-03-02T03:10:55;100018.09;;;7.84;nan
55456;BME280;63021;52.836;6.376;2024-03-02T03:13:20;100020.34;;;7.89;nan
55456;BME280;63021;52.836;6.376;2024-03-02T03:15:45;100025.03;;;7.95;nan
55456;BME280;63021;52.836;6.376;2024-03-02T03:18:11;100027.69;;;7.95;nan
55456;BME280;63021;52.836;6.376;2024-03-02T03:20:36;100030.63;;;7.92;nan
55456;BME280;63021;52.836;6.376;2024-03-02T03:23:02;100026.16;;;7.92;nan
55456;BME280;63021;52.836;6.376;2024-03-02T03:25:29;100017.22;;;7.93;nan
55456;BME280;63021;52.836;6.376;2024-03-02T03:27:54;100009.28;;;7.93;nan
55456;BME280;63021;52.836;6.376;2024-03-02T03:30:20;100003.13;;;7.93;nan
55456;BME280;63021;52.836;6.376;2024-03-02T03:32:45;100018.19;;;7.92;nan
55456;BME280;63021;52.836;6.376;2024-03-02T03:35:13;100023.81;;;7.89;nan
55456;BME280;63021;52.836;6.376;2024-03-02T03:37:40;100017.53;;;7.90;nan
55456;BME280;63021;52.836;6.376;2024-03-02T03:40:06;100025.34;;;7.92;nan
55456;BME280;63021;52.836;6.376;2024-03-02T03:42:38;100026.31;;;7.91;nan
55456;BME280;63021;52.836;6.376;2024-03-02T03:45:05;100016.16;;;7.86;nan
55456;BME280;63021;52.836;6.376;2024-03-02T03:47:33;100027.28;;;7.90;nan
55456;BME280;63021;52.836;6.376;2024-03-02T03:49:59;100023.00;;;7.89;nan
55456;BME280;63021;52.836;6.376;2024-03-02T03:52:24;100037.06;;;7.89;nan
55456;BME280;63021;52.836;6.376;2024-03-02T03:54:50;100035.38;;;7.88;nan
55456;BME280;63021;52.836;6.376;2024-03-02T03:57:16;100040.84;;;7.87;nan
55456;BME280;63021;52.836;6.376;2024-03-02T03:59:42;100025.84;;;7.77;nan
55456;BME280;63021;52.836;6.376;2024-03-02T04:02:08;100029.31;;;7.78;nan
55456;BME280;63021;52.836;6.376;2024-03-02T04:04:34;100040.16;;;7.85;nan
55456;BME280;63021;52.836;6.376;2024-03-02T04:06:59;100025.53;;;7.80;nan
55456;BME280;63021;52.836;6.376;2024-03-02T04:09:25;100045.00;;;7.89;nan
55456;BME280;63021;52.836;6.376;2024-03-02T04:11:50;100031.34;;;7.84;nan
55456;BME280;63021;52.836;6.376;2024-03-02T04:14:16;100053.94;;;7.88;nan
55456;BME280;63021;52.836;6.376;2024-03-02T04:16:42;100042.50;;;7.88;nan
55456;BME280;63021;52.836;6.376;2024-03-02T04:19:07;100048.63;;;7.88;nan
55456;BME280;63021;52.836;6.376;2024-03-02T04:21:33;100056.72;;;7.87;nan
55456;BME280;63021;52.836;6.376;2024-03-02T04:23:58;100062.63;;;7.80;nan
55456;BME280;63021;52.836;6.376;2024-03-02T04:26:25;100060.50;;;7.84;nan
55456;BME280;63021;52.836;6.376;2024-03-02T04:28:54;100044.25;;;7.79;nan
55456;BME280;63021;52.836;6.376;2024-03-02T04:31:19;100053.56;;;7.83;nan
55456;BME280;63021;52.836;6.376;2024-03-02T04:33:45;100054.44;;;7.74;nan
55456;BME280;63021;52.836;6.376;2024-03-02T04:36:11;100061.78;;;7.80;nan
55456;BME280;63021;52.836;6.376;2024-03-02T04:38:37;100065.44;;;7.79;nan
55456;BME280;63021;52.836;6.376;2024-03-02T04:41:04;100094.72;;;7.77;nan
55456;BME280;63021;52.836;6.376;2024-03-02T04:43:31;100080.47;;;7.78;nan
55456;BME280;63021;52.836;6.376;2024-03-02T04:45:57;100078.13;;;7.75;nan
55456;BME280;63021;52.836;6.376;2024-03-02T04:48:23;100072.16;;;7.73;nan
55456;BME280;63021;52.836;6.376;2024-03-02T04:50:49;100079.81;;;7.76;nan
55456;BME280;63021;52.836;6.376;2024-03-02T04:53:14;100083.59;;;7.74;nan
55456;BME280;63021;52.836;6.376;2024-03-02T04:55:39;100085.84;;;7.69;nan
55456;BME280;63021;52.836;6.376;2024-03-02T04:58:05;100101.75;;;7.69;nan
55456;BME280;63021;52.836;6.376;2024-03-02T05:00:32;100114.03;;;7.60;nan
55456;BME280;63021;52.836;6.376;2024-03-02T05:02:57;100101.50;;;7.62;nan
55456;BME280;63021;52.836;6.376;2024-03-02T05:05:23;100097.16;;;7.61;nan
55456;BME280;63021;52.836;6.376;2024-03-02T05:07:48;100086.88;;;7.58;nan
55456;BME280;63021;52.836;6.376;2024-03-02T05:10:14;100086.59;;;7.51;nan
55456;BME280;63021;52.836;6.376;2024-03-02T05:12:40;100114.91;;;7.51;nan
55456;BME280;63021;52.836;6.376;2024-03-02T05:15:09;100112.13;;;7.52;nan
55456;BME280;63021;52.836;6.376;2024-03-02T05:17:38;100112.13;;;7.52;nan
55456;BME280;63021;52.836;6.376;2024-03-02T05:20:06;100114.91;;;7.51;nan
55456;BME280;63021;52.836;6.376;2024-03-02T05:22:32;100111.44;;;7.50;nan
55456;BME280;63021;52.836;6.376;2024-03-02T05:24:59;100109.63;;;7.51;nan
55456;BME280;63021;52.836;6.376;2024-03-02T05:27:26;100108.78;;;7.50;nan
55456;BME280;63021;52.836;6.376;2024-03-02T05:29:51;100094.63;;;7.41;nan
55456;BME280;63021;52.836;6.376;2024-03-02T05:32:17;100109.09;;;7.47;nan
55456;BME280;63021;52.836;6.376;2024-03-02T05:34:42;100144.34;;;7.48;nan
55456;BME280;63021;52.836;6.376;2024-03-02T05:37:08;100132.22;;;7.45;nan
55456;BME280;63021;52.836;6.376;2024-03-02T05:39:36;100141.97;;;7.44;nan
55456;BME280;63021;52.836;6.376;2024-03-02T05:42:01;100118.59;;;7.40;nan
55456;BME280;63021;52.836;6.376;2024-03-02T05:44:28;100132.78;;;7.49;nan
55456;BME280;63021;52.836;6.376;2024-03-02T05:46:53;100131.09;;;7.48;nan
55456;BME280;63021;52.836;6.376;2024-03-02T05:49:19;100160.09;;;7.49;nan
55456;BME280;63021;52.836;6.376;2024-03-02T05:51:44;100135.56;;;7.47;nan
55456;BME280;63021;52.836;6.376;2024-03-02T05:54:10;100140.00;;;7.46;nan
55456;BME280;63021;52.836;6.376;2024-03-02T05:56:35;100140.44;;;7.42;nan
55456;BME280;63021;52.836;6.376;2024-03-02T05:59:01;100160.66;;;7.43;nan
55456;BME280;63021;52.836;6.376;2024-03-02T06:01:52;100143.25;;;7.40;nan
55456;BME280;63021;52.836;6.376;2024-03-02T06:04:18;100142.81;;;7.35;nan
55456;BME280;63021;52.836;6.376;2024-03-02T06:06:43;100157.88;;;7.35;nan
55456;BME280;63021;52.836;6.376;2024-03-02T06:09:09;100159.00;;;7.32;nan
55456;BME280;63021;52.836;6.376;2024-03-02T06:11:39;100155.69;;;7.30;nan
55456;BME280;63021;52.836;6.376;2024-03-02T06:14:06;100149.44;;;7.21;nan
55456;BME280;63021;52.836;6.376;2024-03-02T06:16:32;100189.81;;;7.23;nan
55456;BME280;63021;52.836;6.376;2024-03-02T06:18:57;100168.22;;;7.18;nan
55456;BME280;63021;52.836;6.376;2024-03-02T06:21:26;100155.41;;;7.14;nan
55456;BME280;63021;52.836;6.376;2024-03-02T06:23:52;100188.03;;;7.14;nan
55456;BME280;63021;52.836;6.376;2024-03-02T06:26:17;100159.06;;;7.13;nan
55456;BME280;63021;52.836;6.376;2024-03-02T06:28:43;100145.97;;;7.01;nan
55456;BME280;63021;52.836;6.376;2024-03-02T06:31:09;100175.19;;;7.09;nan
55456;BME280;63021;52.836;6.376;2024-03-02T06:33:35;100170.19;;;7.06;nan
55456;BME280;63021;52.836;6.376;2024-03-02T06:36:01;100177.16;;;7.07;nan
55456;BME280;63021;52.836;6.376;2024-03-02T06:38:27;100179.94;;;7.06;nan
55456;BME280;63021;52.836;6.376;2024-03-02T06:40:52;100165.31;;;6.92;nan
55456;BME280;63021;52.836;6.376;2024-03-02T06:43:18;100192.91;;;6.99;nan
55456;BME280;63021;52.836;6.376;2024-03-02T06:45:48;100192.75;;;7.01;nan
55456;BME280;63021;52.836;6.376;2024-03-02T06:48:14;100187.59;;;6.99;nan
55456;BME280;63021;52.836;6.376;2024-03-02T06:50:43;100184.81;;;6.91;nan
55456;BME280;63021;52.836;6.376;2024-03-02T06:53:09;100222.28;;;6.96;nan
55456;BME280;63021;52.836;6.376;2024-03-02T06:55:37;100198.34;;;6.98;nan
55456;BME280;63021;52.836;6.376;2024-03-02T06:58:03;100203.09;;;6.94;nan
55456;BME280;63021;52.836;6.376;2024-03-02T07:00:28;100221.75;;;6.92;nan
55456;BME280;63021;52.836;6.376;2024-03-02T07:02:54;100207.13;;;6.88;nan
55456;BME280;63021;52.836;6.376;2024-03-02T07:05:19;100180.50;;;6.70;nan
55456;BME280;63021;52.836;6.376;2024-03-02T07:07:46;100210.59;;;6.89;nan
55456;BME280;63021;52.836;6.376;2024-03-02T07:10:11;100230.06;;;6.88;nan
55456;BME280;63021;52.836;6.376;2024-03-02T07:12:37;100222.13;;;6.88;nan
55456;BME280;63021;52.836;6.376;2024-03-02T07:15:03;100237.88;;;6.89;nan
55456;BME280;63021;52.836;6.376;2024-03-02T07:17:32;100220.22;;;6.90;nan
55456;BME280;63021;52.836;6.376;2024-03-02T07:19:58;100230.91;;;6.98;nan
55456;BME280;63021;52.836;6.376;2024-03-02T07:22:23;100230.63;;;7.11;nan
55456;BME280;63021;52.836;6.376;2024-03-02T07:24:49;100212.41;;;7.18;nan
55456;BME280;63021;52.836;6.376;2024-03-02T07:27:18;100223.66;;;7.39;nan
55456;BME280;63021;52.836;6.376;2024-03-02T07:29:43;100223.06;;;7.55;nan
55456;BME280;63021;52.836;6.376;2024-03-02T07:32:09;100224.16;;;7.72;nan
55456;BME280;63021;52.836;6.376;2024-03-02T07:34:36;100229.09;;;7.95;nan
55456;BME280;63021;52.836;6.376;2024-03-02T07:37:01;100224.84;;;8.12;nan
55456;BME280;63021;52.836;6.376;2024-03-02T07:39:27;100223.94;;;8.31;nan
55456;BME280;63021;52.836;6.376;2024-03-02T07:41:52;100226.69;;;8.39;nan
55456;BME280;63021;52.836;6.376;2024-03-02T07:44:18;100239.94;;;8.67;nan
55456;BME280;63021;52.836;6.376;2024-03-02T07:46:45;100237.31;;;8.85;nan
55456;BME280;63021;52.836;6.376;2024-03-02T07:49:15;100236.94;;;8.98;nan
55456;BME280;63021;52.836;6.376;2024-03-02T07:51:40;100244.91;;;9.16;nan
55456;BME280;63021;52.836;6.376;2024-03-02T07:54:06;100242.53;;;9.31;nan
55456;BME280;63021;52.836;6.376;2024-03-02T07:56:31;100249.81;;;9.47;nan
55456;BME280;63021;52.836;6.376;2024-03-02T07:58:57;100271.50;;;9.60;nan
55456;BME280;63021;52.836;6.376;2024-03-02T08:01:27;100237.00;;;9.68;nan
55456;BME280;63021;52.836;6.376;2024-03-02T08:03:54;100239.03;;;9.75;nan
55456;BME280;63021;52.836;6.376;2024-03-02T08:06:22;100267.22;;;9.94;nan
55456;BME280;63021;52.836;6.376;2024-03-02T08:08:48;100248.28;;;9.97;nan
55456;BME280;63021;52.836;6.376;2024-03-02T08:11:13;100265.53;;;10.19;nan
55456;BME280;63021;52.836;6.376;2024-03-02T08:13:39;100280.03;;;10.25;nan
55456;BME280;63021;52.836;6.376;2024-03-02T08:16:05;100259.41;;;10.27;nan
55456;BME280;63021;52.836;6.376;2024-03-02T08:18:33;100283.56;;;10.33;nan
55456;BME280;63021;52.836;6.376;2024-03-02T08:20:58;100262.78;;;10.29;nan
55456;BME280;63021;52.836;6.376;2024-03-02T08:23:24;100276.72;;;10.31;nan
55456;BME280;63021;52.836;6.376;2024-03-02T08:25:49;100276.06;;;10.29;nan
55456;BME280;63021;52.836;6.376;2024-03-02T08:28:14;100269.72;;;10.30;nan
55456;BME280;63021;52.836;6.376;2024-03-02T08:30:40;100271.13;;;10.34;nan
55456;BME280;63021;52.836;6.376;2024-03-02T08:33:05;100274.97;;;10.39;nan
55456;BME280;63021;52.836;6.376;2024-03-02T08:35:31;100286.44;;;10.40;nan
55456;BME280;63021;52.836;6.376;2024-03-02T08:38:01;100286.31;;;10.42;nan
55456;BME280;63021;52.836;6.376;2024-03-02T08:40:26;100284.78;;;10.39;nan
55456;BME280;63021;52.836;6.376;2024-03-02T08:42:52;100286.16;;;10.43;nan
55456;BME280;63021;52.836;6.376;2024-03-02T08:45:18;100295.31;;;10.49;nan
55456;BME280;63021;52.836;6.376;2024-03-02T08:47:46;100285.97;;;10.45;nan
55456;BME280;63021;52.836;6.376;2024-03-02T08:50:11;100290.34;;;10.54;nan
55456;BME280;63021;52.836;6.376;2024-03-02T08:52:37;100287.88;;;10.61;nan
55456;BME280;63021;52.836;6.376;2024-03-02T08:55:02;100277.56;;;10.66;nan
55456;BME280;63021;52.836;6.376;2024-03-02T08:57:28;100285.25;;;10.69;nan
55456;BME280;63021;52.836;6.376;2024-03-02T08:59:53;100285.91;;;10.71;nan
55456;BME280;63021;52.836;6.376;2024-03-02T09:02:18;100300.56;;;10.75;nan
55456;BME280;63021;52.836;6.376;2024-03-02T09:04:44;100273.25;;;10.73;nan
55456;BME280;63021;52.836;6.376;2024-03-02T09:07:09;100280.63;;;10.79;nan
55456;BME280;63021;52.836;6.376;2024-03-02T09:09:35;100286.94;;;10.78;nan
55456;BME280;63021;52.836;6.376;2024-03-02T09:12:00;100284.59;;;10.75;nan
55456;BME280;63021;52.836;6.376;2024-03-02T09:14:26;100286.56;;;10.73;nan
55456;BME280;63021;52.836;6.376;2024-03-02T09:16:51;100286.22;;;10.68;nan
55456;BME280;63021;52.836;6.376;2024-03-02T09:19:17;100292.22;;;10.70;nan
55456;BME280;63021;52.836;6.376;2024-03-02T09:21:42;100290.69;;;10.59;nan
55456;BME280;63021;52.836;6.376;2024-03-02T09:24:09;100293.38;;;10.67;nan
55456;BME280;63021;52.836;6.376;2024-03-02T09:26:35;100290.03;;;10.65;nan
55456;BME280;63021;52.836;6.376;2024-03-02T09:29:00;100318.81;;;10.62;nan
55456;BME280;63021;52.836;6.376;2024-03-02T09:31:26;100292.53;;;10.67;nan
55456;BME280;63021;52.836;6.376;2024-03-02T09:33:51;100294.22;;;10.68;nan
55456;BME280;63021;52.836;6.376;2024-03-02T09:36:20;100279.88;;;10.61;nan
55456;BME280;63021;52.836;6.376;2024-03-02T09:38:47;100292.91;;;10.72;nan
55456;BME280;63021;52.836;6.376;2024-03-02T09:41:13;100294.88;;;10.70;nan
55456;BME280;63021;52.836;6.376;2024-03-02T09:43:40;100307.38;;;10.69;nan
55456;BME280;63021;52.836;6.376;2024-03-02T09:46:07;100292.75;;;10.73;nan
55456;BME280;63021;52.836;6.376;2024-03-02T09:48:33;100292.91;;;10.72;nan
55456;BME280;63021;52.836;6.376;2024-03-02T09:51:00;100300.88;;;10.72;nan
55456;BME280;63021;52.836;6.376;2024-03-02T09:53:31;100298.22;;;10.72;nan
55456;BME280;63021;52.836;6.376;2024-03-02T09:55:56;100285.53;;;10.66;nan
55456;BME280;63021;52.836;6.376;2024-03-02T09:58:22;100292.38;;;10.68;nan
55456;BME280;63021;52.836;6.376;2024-03-02T10:00:47;100292.22;;;10.70;nan
55456;BME280;63021;52.836;6.376;2024-03-02T10:03:14;100293.72;;;10.72;nan
55456;BME280;63021;52.836;6.376;2024-03-02T10:05:40;100274.06;;;10.65;nan
55456;BME280;63021;52.836;6.376;2024-03-02T10:08:05;100292.38;;;10.68;nan
55456;BME280;63021;52.836;6.376;2024-03-02T10:10:36;100298.06;;;10.73;nan
55456;BME280;63021;52.836;6.376;2024-03-02T10:13:09;100301.72;;;10.72;nan
55456;BME280;63021;52.836;6.376;2024-03-02T10:15:35;100299.06;;;10.72;nan
55456;BME280;63021;52.836;6.376;2024-03-02T10:18:03;100312.38;;;10.72;nan
55456;BME280;63021;52.836;6.376;2024-03-02T10:20:28;100298.88;;;10.74;nan
55456;BME280;63021;52.836;6.376;2024-03-02T10:22:55;100284.91;;;10.72;nan
55456;BME280;63021;52.836;6.376;2024-03-02T10:25:32;100304.91;;;10.76;nan
55456;BME280;63021;52.836;6.376;2024-03-02T10:27:59;100298.22;;;10.80;nan
55456;BME280;63021;52.836;6.376;2024-03-02T10:30:27;100287.28;;;10.83;nan
55456;BME280;63021;52.836;6.376;2024-03-02T10:32:54;100287.94;;;10.85;nan
55456;BME280;63021;52.836;6.376;2024-03-02T10:35:21;100266.28;;;10.80;nan
55456;BME280;63021;52.836;6.376;2024-03-02T10:37:48;100287.28;;;10.91;nan
55456;BME280;63021;52.836;6.376;2024-03-02T10:40:14;100278.47;;;10.91;nan
55456;BME280;63021;52.836;6.376;2024-03-02T10:42:41;100293.94;;;10.96;nan
55456;BME280;63021;52.836;6.376;2024-03-02T10:45:09;100291.66;;;11.01;nan
55456;BME280;63021;52.836;6.376;2024-03-02T10:47:37;100284.31;;;11.03;nan
55456;BME280;63021;52.836;6.376;2024-03-02T10:50:04;100287.97;;;11.02;nan
55456;BME280;63021;52.836;6.376;2024-03-02T10:52:37;100285.63;;;10.99;nan
55456;BME280;63021;52.836;6.376;2024-03-02T10:55:03;100292.31;;;11.03;nan
55456;BME280;63021;52.836;6.376;2024-03-02T11:00:12;100293.31;;;11.10;nan
55456;BME280;63021;52.836;6.376;2024-03-02T11:02:48;100288.69;;;11.12;nan
55456;BME280;63021;52.836;6.376;2024-03-02T11:05:18;100312.47;;;11.14;nan
55456;BME280;63021;52.836;6.376;2024-03-02T11:07:45;100284.00;;;11.14;nan
55456;BME280;63021;52.836;6.376;2024-03-02T11:10:12;100282.16;;;11.15;nan
55456;BME280;63021;52.836;6.376;2024-03-02T11:12:50;100292.00;;;11.22;nan
55456;BME280;63021;52.836;6.376;2024-03-02T11:15:18;100274.69;;;11.26;nan
55456;BME280;63021;52.836;6.376;2024-03-02T11:17:47;100270.84;;;11.29;nan
55456;BME280;63021;52.836;6.376;2024-03-02T11:20:13;100273.88;;;11.34;nan
55456;BME280;63021;52.836;6.376;2024-03-02T11:22:40;100266.22;;;11.39;nan
55456;BME280;63021;52.836;6.376;2024-03-02T11:25:22;100281.19;;;11.49;nan
55456;BME280;63021;52.836;6.376;2024-03-02T11:33:08;100281.50;;;11.62;nan
55456;BME280;63021;52.836;6.376;2024-03-02T11:35:37;100296.84;;;11.68;nan
55456;BME280;63021;52.836;6.376;2024-03-02T11:38:04;100262.03;;;11.70;nan
55456;BME280;63021;52.836;6.376;2024-03-02T11:40:30;100277.34;;;11.76;nan
55456;BME280;63021;52.836;6.376;2024-03-02T11:42:56;100278.03;;;11.78;nan
55456;BME280;63021;52.836;6.376;2024-03-02T11:45:23;100268.69;;;11.74;nan
55456;BME280;63021;52.836;6.376;2024-03-02T11:47:53;100269.34;;;11.84;nan
55456;BME280;63021;52.836;6.376;2024-03-02T11:53:08;100266.66;;;11.92;nan
55456;BME280;63021;52.836;6.376;2024-03-02T11:55:35;100282.00;;;11.99;nan
55456;BME280;63021;52.836;6.376;2024-03-02T11:58:03;100265.31;;;12.05;nan
55456;BME280;63021;52.836;6.376;2024-03-02T12:00:29;100258.47;;;12.10;nan
55456;BME280;63021;52.836;6.376;2024-03-02T12:03:04;100261.75;;;12.29;nan
55456;BME280;63021;52.836;6.376;2024-03-02T12:05:30;100269.91;;;12.36;nan
55456;BME280;63021;52.836;6.376;2024-03-02T12:08:03;100259.66;;;12.47;nan
55456;BME280;63021;52.836;6.376;2024-03-02T12:10:32;100254.13;;;12.57;nan
55456;BME280;63021;52.836;6.376;2024-03-02T12:13:05;100232.75;;;12.57;nan
55456;BME280;63021;52.836;6.376;2024-03-02T12:15:37;100252.66;;;12.78;nan
55456;BME280;63021;52.836;6.376;2024-03-02T12:18:03;100243.56;;;12.87;nan
55456;BME280;63021;52.836;6.376;2024-03-02T12:20:30;100249.72;;;12.96;nan
55456;BME280;63021;52.836;6.376;2024-03-02T12:23:02;100248.84;;;13.04;nan
55456;BME280;63021;52.836;6.376;2024-03-02T12:25:28;100243.94;;;13.07;nan
55456;BME280;63021;52.836;6.376;2024-03-02T12:27:58;100246.56;;;13.15;nan
55456;BME280;63021;52.836;6.376;2024-03-02T12:30:27;100275.41;;;13.20;nan
55456;BME280;63021;52.836;6.376;2024-03-02T12:32:54;100228.16;;;13.21;nan
55456;BME280;63021;52.836;6.376;2024-03-02T12:35:19;100238.81;;;13.29;nan
55456;BME280;63021;52.836;6.376;2024-03-02T12:37:50;100234.56;;;13.34;nan
55456;BME280;63021;52.836;6.376;2024-03-02T12:40:17;100237.19;;;13.43;nan
55456;BME280;63021;52.836;6.376;2024-03-02T12:42:46;100233.03;;;13.40;nan
55456;BME280;63021;52.836;6.376;2024-03-02T12:45:15;100235.25;;;13.37;nan
55456;BME280;63021;52.836;6.376;2024-03-02T12:47:45;100243.22;;;13.45;nan
55456;BME280;63021;52.836;6.376;2024-03-02T12:50:29;100221.06;;;13.36;nan
55456;BME280;63021;52.836;6.376;2024-03-02T12:52:55;100233.44;;;13.52;nan
55456;BME280;63021;52.836;6.376;2024-03-02T12:55:21;100245.91;;;13.60;nan
55456;BME280;63021;52.836;6.376;2024-03-02T12:57:53;100234.56;;;13.58;nan
55456;BME280;63021;52.836;6.376;2024-03-02T13:00:20;100236.31;;;13.65;nan
55456;BME280;63021;52.836;6.376;2024-03-02T13:02:46;100227.94;;;13.68;nan
55456;BME280;63021;52.836;6.376;2024-03-02T13:05:12;100243.59;;;13.72;nan
55456;BME280;63021;52.836;6.376;2024-03-02T13:07:38;100238.75;;;13.75;nan
55456;BME280;63021;52.836;6.376;2024-03-02T13:10:05;100231.16;;;13.79;nan
55456;BME280;63021;52.836;6.376;2024-03-02T13:12:31;100252.56;;;13.79;nan
55456;BME280;63021;52.836;6.376;2024-03-02T13:14:58;100248.50;;;13.83;nan
55456;BME280;63021;52.836;6.376;2024-03-02T13:17:23;100242.34;;;13.82;nan
55456;BME280;63021;52.836;6.376;2024-03-02T13:19:57;100230.63;;;13.83;nan
55456;BME280;63021;52.836;6.376;2024-03-02T13:22:23;100213.28;;;13.79;nan
55456;BME280;63021;52.836;6.376;2024-03-02T13:24:50;100214.41;;;13.85;nan